Kalmar Nyckel — WCY3589 — position and weather

sailwx.info

Track history (hours):
 
Tides and Currents Weather Stations Pressure Air Temp Water Temp Dewpoint Dewpoint Depression Visibility Wind Speed Wind Dir Waves Ship Positions

Kalmar Nyckel (United States)

Ship's website: http://www.kalmarnyckel.org/

Owner: KALMAR NYCKEL FOUNDATION, WILMINGTON, DE. More information available from US FCC via Universal Licensing System.

Last reported at 2019-Aug-20 13:57 UTC. Time now 2019-Aug-24 06:42 UTC.
Position N 39°04' W 075°10'.

Length 42 m; draft 3.8 m.

Type: Sailing vessel. MMSI: 367004000.

Date/timePositionNaut miles runAvg speedWind from/ knotsBaromVisibWave heightAir tempDewpointWater temp
2019-Aug-20 13:57N 39°04' W 075°10'5 8.8
2019-Aug-20 13:25N 38°59' W 075°08'4 8.8
2019-Aug-20 13:00N 38°56' W 075°06'4 8.4
2019-Aug-20 12:30N 38°52' W 075°04'4 7.2
2019-Aug-20 12:00N 38°49' W 075°02'4 8.0
2019-Aug-20 11:30N 38°49' W 074°57'4 7.8
2019-Aug-20 11:00N 38°49' W 074°52'3 6.2
2019-Aug-20 10:31N 38°50' W 074°48'4 7.0
2019-Aug-20 10:00N 38°53' W 074°45'4 7.5
2019-Aug-20 09:30N 38°56' W 074°42'4 7.5
2019-Aug-20 09:00N 38°59' W 074°39'4 7.4
2019-Aug-20 08:29N 39°01' W 074°36'4 7.4
2019-Aug-20 08:00N 39°04' W 074°32'4 7.3
2019-Aug-20 07:30N 39°07' W 074°29'33 6.9
2019-Aug-20 02:41N 39°35' W 074°06'1 6.7
2019-Aug-20 02:30N 39°36' W 074°05'3 6.6
2019-Aug-20 02:00N 39°39' W 074°03'3 6.5
2019-Aug-20 01:30N 39°42' W 074°01'3 5.8
2019-Aug-20 01:00N 39°44' W 073°60'3 5.8
2019-Aug-20 00:29N 39°47' W 073°58'7 6.0
2019-Aug-19 23:22N 39°54' W 073°57'43 4.0
2019-Aug-19 12:37N 40°36' W 074°03'2 7.9
2019-Aug-19 12:24N 40°38' W 074°03'3 8.2
2019-Aug-19 12:00N 40°41' W 074°02'5 9.7
2019-Aug-19 11:30N 40°46' W 074°01'  
Track history (hours):
 
Tides and Currents Weather Stations Pressure Air Temp Water Temp Dewpoint Dewpoint Depression Visibility Wind Speed Wind Dir Waves Ship Positions

Kalmar Nyckel (United States)

Ship's website: http://www.kalmarnyckel.org/

Owner: KALMAR NYCKEL FOUNDATION, WILMINGTON, DE. More information available from US FCC via Universal Licensing System.

Last reported at 2019-Aug-20 13:57 UTC. Time now 2019-Aug-24 06:42 UTC.
Position N 39°04' W 075°10'.

Length 42 m; draft 3.8 m.

Type: Sailing vessel. MMSI: 367004000.

Date/timePositionNaut miles runAvg speedWind from/ knotsBaromVisibWave heightAir tempDewpointWater temp
2019-Aug-20 13:57N 39°04' W 075°10'5 8.8
2019-Aug-20 13:25N 38°59' W 075°08'4 8.8
2019-Aug-20 13:00N 38°56' W 075°06'4 8.4
2019-Aug-20 12:30N 38°52' W 075°04'4 7.2
2019-Aug-20 12:00N 38°49' W 075°02'4 8.0
2019-Aug-20 11:30N 38°49' W 074°57'4 7.8
2019-Aug-20 11:00N 38°49' W 074°52'3 6.2
2019-Aug-20 10:31N 38°50' W 074°48'4 7.0
2019-Aug-20 10:00N 38°53' W 074°45'4 7.5
2019-Aug-20 09:30N 38°56' W 074°42'4 7.5
2019-Aug-20 09:00N 38°59' W 074°39'4 7.4
2019-Aug-20 08:29N 39°01' W 074°36'4 7.4
2019-Aug-20 08:00N 39°04' W 074°32'4 7.3
2019-Aug-20 07:30N 39°07' W 074°29'33 6.9
2019-Aug-20 02:41N 39°35' W 074°06'1 6.7
2019-Aug-20 02:30N 39°36' W 074°05'3 6.6
2019-Aug-20 02:00N 39°39' W 074°03'3 6.5
2019-Aug-20 01:30N 39°42' W 074°01'3 5.8
2019-Aug-20 01:00N 39°44' W 073°60'3 5.8
2019-Aug-20 00:29N 39°47' W 073°58'7 6.0
2019-Aug-19 23:22N 39°54' W 073°57'43 4.0
2019-Aug-19 12:37N 40°36' W 074°03'2 7.9
2019-Aug-19 12:24N 40°38' W 074°03'3 8.2
2019-Aug-19 12:00N 40°41' W 074°02'5 9.7
2019-Aug-19 11:30N 40°46' W 074°01'  

Dump ship's entire track history